sensor_id;sensor_type;location;lat;lon;timestamp;P1;durP1;ratioP1;P2;durP2;ratioP2
64188;SDS011;50493;50.970;10.082;2023-12-20T00:00:38;4.15;;;2.22;;
64188;SDS011;50493;50.970;10.082;2023-12-20T00:03:04;3.50;;;1.92;;
64188;SDS011;50493;50.970;10.082;2023-12-20T00:05:30;4.20;;;2.28;;
64188;SDS011;50493;50.970;10.082;2023-12-20T00:07:58;3.35;;;1.95;;
64188;SDS011;50493;50.970;10.082;2023-12-20T00:10:23;4.45;;;2.60;;
64188;SDS011;50493;50.970;10.082;2023-12-20T00:12:49;4.13;;;2.20;;
64188;SDS011;50493;50.970;10.082;2023-12-20T00:15:14;3.88;;;2.13;;
64188;SDS011;50493;50.970;10.082;2023-12-20T00:17:39;3.28;;;1.80;;
64188;SDS011;50493;50.970;10.082;2023-12-20T00:20:05;3.20;;;1.70;;
64188;SDS011;50493;50.970;10.082;2023-12-20T00:22:31;4.10;;;1.65;;
64188;SDS011;50493;50.970;10.082;2023-12-20T00:24:58;3.45;;;2.00;;
64188;SDS011;50493;50.970;10.082;2023-12-20T00:27:23;2.80;;;1.70;;
64188;SDS011;50493;50.970;10.082;2023-12-20T00:29:49;2.75;;;1.75;;
64188;SDS011;50493;50.970;10.082;2023-12-20T00:32:15;3.53;;;1.90;;
64188;SDS011;50493;50.970;10.082;2023-12-20T00:34:40;3.20;;;1.85;;
64188;SDS011;50493;50.970;10.082;2023-12-20T00:37:05;3.63;;;1.80;;
64188;SDS011;50493;50.970;10.082;2023-12-20T00:39:31;2.78;;;1.58;;
64188;SDS011;50493;50.970;10.082;2023-12-20T00:41:59;2.13;;;1.40;;
64188;SDS011;50493;50.970;10.082;2023-12-20T00:44:24;3.30;;;1.63;;
64188;SDS011;50493;50.970;10.082;2023-12-20T00:46:49;3.30;;;2.00;;
64188;SDS011;50493;50.970;10.082;2023-12-20T00:49:15;2.72;;;1.80;;
64188;SDS011;50493;50.970;10.082;2023-12-20T00:51:40;2.97;;;2.00;;
64188;SDS011;50493;50.970;10.082;2023-12-20T00:54:05;2.38;;;1.52;;
64188;SDS011;50493;50.970;10.082;2023-12-20T00:56:31;2.42;;;1.60;;
64188;SDS011;50493;50.970;10.082;2023-12-20T00:58:57;2.60;;;1.50;;
64188;SDS011;50493;50.970;10.082;2023-12-20T01:01:23;1.90;;;1.20;;
64188;SDS011;50493;50.970;10.082;2023-12-20T01:03:48;2.97;;;1.30;;
64188;SDS011;50493;50.970;10.082;2023-12-20T01:06:16;1.75;;;1.30;;
64188;SDS011;50493;50.970;10.082;2023-12-20T01:08:41;1.90;;;1.00;;
64188;SDS011;50493;50.970;10.082;2023-12-20T01:11:06;3.53;;;1.97;;
64188;SDS011;50493;50.970;10.082;2023-12-20T01:13:32;1.60;;;1.15;;
64188;SDS011;50493;50.970;10.082;2023-12-20T01:15:59;1.70;;;1.20;;
64188;SDS011;50493;50.970;10.082;2023-12-20T01:18:24;1.95;;;1.10;;
64188;SDS011;50493;50.970;10.082;2023-12-20T01:20:49;1.67;;;1.20;;
64188;SDS011;50493;50.970;10.082;2023-12-20T01:23:15;1.92;;;1.20;;
64188;SDS011;50493;50.970;10.082;2023-12-20T01:25:40;1.17;;;1.00;;
64188;SDS011;50493;50.970;10.082;2023-12-20T01:28:06;1.13;;;0.90;;
64188;SDS011;50493;50.970;10.082;2023-12-20T01:30:31;1.00;;;0.80;;
64188;SDS011;50493;50.970;10.082;2023-12-20T01:32:59;1.47;;;0.90;;
64188;SDS011;50493;50.970;10.082;2023-12-20T01:35:24;3.53;;;1.80;;
64188;SDS011;50493;50.970;10.082;2023-12-20T01:37:50;4.63;;;1.30;;
64188;SDS011;50493;50.970;10.082;2023-12-20T01:40:15;3.25;;;1.73;;
64188;SDS011;50493;50.970;10.082;2023-12-20T01:42:41;2.40;;;1.40;;
64188;SDS011;50493;50.970;10.082;2023-12-20T01:45:07;2.97;;;1.75;;
64188;SDS011;50493;50.970;10.082;2023-12-20T01:47:33;4.13;;;1.55;;
64188;SDS011;50493;50.970;10.082;2023-12-20T01:50:00;3.67;;;1.90;;
64188;SDS011;50493;50.970;10.082;2023-12-20T01:52:28;3.15;;;1.67;;
64188;SDS011;50493;50.970;10.082;2023-12-20T01:54:54;2.08;;;1.35;;
64188;SDS011;50493;50.970;10.082;2023-12-20T01:57:26;2.42;;;1.45;;
64188;SDS011;50493;50.970;10.082;2023-12-20T01:59:51;2.88;;;1.58;;
64188;SDS011;50493;50.970;10.082;2023-12-20T02:02:16;2.42;;;1.17;;
64188;SDS011;50493;50.970;10.082;2023-12-20T02:04:42;2.08;;;1.15;;
64188;SDS011;50493;50.970;10.082;2023-12-20T02:07:09;2.58;;;1.33;;
64188;SDS011;50493;50.970;10.082;2023-12-20T02:09:36;2.15;;;1.20;;
64188;SDS011;50493;50.970;10.082;2023-12-20T02:12:03;2.05;;;1.33;;
64188;SDS011;50493;50.970;10.082;2023-12-20T02:14:28;2.13;;;1.20;;
64188;SDS011;50493;50.970;10.082;2023-12-20T02:16:53;2.40;;;1.30;;
64188;SDS011;50493;50.970;10.082;2023-12-20T02:19:19;1.52;;;1.13;;
64188;SDS011;50493;50.970;10.082;2023-12-20T02:21:46;2.25;;;1.23;;
64188;SDS011;50493;50.970;10.082;2023-12-20T02:24:11;1.92;;;1.30;;
64188;SDS011;50493;50.970;10.082;2023-12-20T02:26:37;2.20;;;1.30;;
64188;SDS011;50493;50.970;10.082;2023-12-20T02:29:03;1.20;;;1.08;;
64188;SDS011;50493;50.970;10.082;2023-12-20T02:31:28;2.33;;;1.38;;
64188;SDS011;50493;50.970;10.082;2023-12-20T02:33:54;2.05;;;1.17;;
64188;SDS011;50493;50.970;10.082;2023-12-20T02:36:19;3.03;;;1.50;;
64188;SDS011;50493;50.970;10.082;2023-12-20T02:38:46;1.70;;;1.03;;
64188;SDS011;50493;50.970;10.082;2023-12-20T02:41:11;2.13;;;1.25;;
64188;SDS011;50493;50.970;10.082;2023-12-20T02:43:37;2.88;;;1.52;;
64188;SDS011;50493;50.970;10.082;2023-12-20T02:46:02;2.07;;;1.13;;
64188;SDS011;50493;50.970;10.082;2023-12-20T02:48:28;2.88;;;1.55;;
64188;SDS011;50493;50.970;10.082;2023-12-20T02:50:53;2.70;;;1.60;;
64188;SDS011;50493;50.970;10.082;2023-12-20T02:53:19;6.80;;;2.75;;
64188;SDS011;50493;50.970;10.082;2023-12-20T02:55:46;4.38;;;2.40;;
64188;SDS011;50493;50.970;10.082;2023-12-20T02:58:11;5.75;;;3.33;;
64188;SDS011;50493;50.970;10.082;2023-12-20T03:00:36;4.15;;;2.53;;
64188;SDS011;50493;50.970;10.082;2023-12-20T03:03:02;5.43;;;3.23;;
64188;SDS011;50493;50.970;10.082;2023-12-20T03:05:27;5.80;;;3.28;;
64188;SDS011;50493;50.970;10.082;2023-12-20T03:07:53;5.63;;;3.20;;
64188;SDS011;50493;50.970;10.082;2023-12-20T03:10:18;5.87;;;2.77;;
64188;SDS011;50493;50.970;10.082;2023-12-20T03:12:45;5.30;;;3.25;;
64188;SDS011;50493;50.970;10.082;2023-12-20T03:15:10;4.40;;;2.25;;
64188;SDS011;50493;50.970;10.082;2023-12-20T03:17:35;4.80;;;3.03;;
64188;SDS011;50493;50.970;10.082;2023-12-20T03:20:01;5.03;;;2.67;;
64188;SDS011;50493;50.970;10.082;2023-12-20T03:22:27;4.82;;;2.65;;
64188;SDS011;50493;50.970;10.082;2023-12-20T03:24:52;3.70;;;1.80;;
64188;SDS011;50493;50.970;10.082;2023-12-20T03:27:17;3.80;;;2.25;;
64188;SDS011;50493;50.970;10.082;2023-12-20T03:29:44;3.53;;;1.80;;
64188;SDS011;50493;50.970;10.082;2023-12-20T03:32:09;3.90;;;2.30;;
64188;SDS011;50493;50.970;10.082;2023-12-20T03:34:35;2.58;;;1.70;;
64188;SDS011;50493;50.970;10.082;2023-12-20T03:37:00;3.10;;;1.83;;
64188;SDS011;50493;50.970;10.082;2023-12-20T03:39:25;4.28;;;2.38;;
64188;SDS011;50493;50.970;10.082;2023-12-20T03:41:51;5.78;;;2.35;;
64188;SDS011;50493;50.970;10.082;2023-12-20T03:44:16;3.83;;;2.00;;
64188;SDS011;50493;50.970;10.082;2023-12-20T03:46:43;3.43;;;1.90;;
64188;SDS011;50493;50.970;10.082;2023-12-20T03:49:08;3.92;;;1.90;;
64188;SDS011;50493;50.970;10.082;2023-12-20T03:51:33;3.63;;;1.80;;
64188;SDS011;50493;50.970;10.082;2023-12-20T03:53:59;3.17;;;1.83;;
64188;SDS011;50493;50.970;10.082;2023-12-20T03:56:24;3.25;;;1.85;;
64188;SDS011;50493;50.970;10.082;2023-12-20T03:58:49;3.22;;;1.90;;
64188;SDS011;50493;50.970;10.082;2023-12-20T04:01:14;3.23;;;1.87;;
64188;SDS011;50493;50.970;10.082;2023-12-20T04:03:41;3.57;;;2.20;;
64188;SDS011;50493;50.970;10.082;2023-12-20T04:06:06;3.60;;;2.33;;
64188;SDS011;50493;50.970;10.082;2023-12-20T04:08:32;3.22;;;1.92;;
64188;SDS011;50493;50.970;10.082;2023-12-20T04:10:57;3.20;;;2.03;;
64188;SDS011;50493;50.970;10.082;2023-12-20T04:13:22;3.53;;;2.30;;
64188;SDS011;50493;50.970;10.082;2023-12-20T04:15:48;3.00;;;1.67;;
64188;SDS011;50493;50.970;10.082;2023-12-20T04:18:15;7.38;;;4.25;;
64188;SDS011;50493;50.970;10.082;2023-12-20T04:20:41;6.15;;;3.50;;
64188;SDS011;50493;50.970;10.082;2023-12-20T04:23:07;5.07;;;2.85;;
64188;SDS011;50493;50.970;10.082;2023-12-20T04:25:32;4.03;;;2.30;;
64188;SDS011;50493;50.970;10.082;2023-12-20T04:27:57;3.80;;;2.23;;
64188;SDS011;50493;50.970;10.082;2023-12-20T04:30:23;4.30;;;2.20;;
64188;SDS011;50493;50.970;10.082;2023-12-20T04:32:48;3.60;;;2.03;;
64188;SDS011;50493;50.970;10.082;2023-12-20T04:35:13;3.77;;;2.33;;
64188;SDS011;50493;50.970;10.082;2023-12-20T04:37:40;3.53;;;2.28;;
64188;SDS011;50493;50.970;10.082;2023-12-20T04:40:06;6.00;;;2.90;;
64188;SDS011;50493;50.970;10.082;2023-12-20T04:42:33;4.13;;;2.10;;
64188;SDS011;50493;50.970;10.082;2023-12-20T04:44:58;4.35;;;2.70;;
64188;SDS011;50493;50.970;10.082;2023-12-20T04:47:23;3.60;;;2.15;;
64188;SDS011;50493;50.970;10.082;2023-12-20T04:49:49;4.93;;;3.00;;
64188;SDS011;50493;50.970;10.082;2023-12-20T04:52:14;3.20;;;1.83;;
64188;SDS011;50493;50.970;10.082;2023-12-20T04:54:41;3.38;;;2.00;;
64188;SDS011;50493;50.970;10.082;2023-12-20T04:57:06;3.00;;;1.52;;
64188;SDS011;50493;50.970;10.082;2023-12-20T04:59:31;3.20;;;2.05;;
64188;SDS011;50493;50.970;10.082;2023-12-20T05:01:57;4.80;;;2.50;;
64188;SDS011;50493;50.970;10.082;2023-12-20T05:04:22;3.53;;;2.05;;
64188;SDS011;50493;50.970;10.082;2023-12-20T05:06:48;4.25;;;2.50;;
64188;SDS011;50493;50.970;10.082;2023-12-20T05:09:14;3.97;;;2.00;;
64188;SDS011;50493;50.970;10.082;2023-12-20T05:11:41;5.10;;;2.70;;
64188;SDS011;50493;50.970;10.082;2023-12-20T05:14:06;6.53;;;3.15;;
64188;SDS011;50493;50.970;10.082;2023-12-20T05:16:32;5.32;;;2.97;;
64188;SDS011;50493;50.970;10.082;2023-12-20T05:18:57;6.30;;;2.97;;
64188;SDS011;50493;50.970;10.082;2023-12-20T05:21:25;5.13;;;2.40;;
64188;SDS011;50493;50.970;10.082;2023-12-20T05:23:51;3.75;;;2.10;;
64188;SDS011;50493;50.970;10.082;2023-12-20T05:26:16;5.20;;;2.88;;
64188;SDS011;50493;50.970;10.082;2023-12-20T05:28:42;5.50;;;2.73;;
64188;SDS011;50493;50.970;10.082;2023-12-20T05:31:08;3.63;;;2.00;;
64188;SDS011;50493;50.970;10.082;2023-12-20T05:33:34;4.63;;;2.53;;
64188;SDS011;50493;50.970;10.082;2023-12-20T05:35:59;7.00;;;2.90;;
64188;SDS011;50493;50.970;10.082;2023-12-20T05:38:25;5.50;;;2.33;;
64188;SDS011;50493;50.970;10.082;2023-12-20T05:40:50;4.75;;;2.33;;
64188;SDS011;50493;50.970;10.082;2023-12-20T05:43:15;5.53;;;2.27;;
64188;SDS011;50493;50.970;10.082;2023-12-20T05:45:42;4.27;;;2.37;;
64188;SDS011;50493;50.970;10.082;2023-12-20T05:48:07;4.60;;;2.35;;
64188;SDS011;50493;50.970;10.082;2023-12-20T05:50:32;5.05;;;2.45;;
64188;SDS011;50493;50.970;10.082;2023-12-20T05:52:59;5.68;;;2.50;;
64188;SDS011;50493;50.970;10.082;2023-12-20T05:55:25;6.40;;;2.63;;
64188;SDS011;50493;50.970;10.082;2023-12-20T05:57:50;5.07;;;2.75;;
64188;SDS011;50493;50.970;10.082;2023-12-20T06:00:16;3.40;;;1.70;;
64188;SDS011;50493;50.970;10.082;2023-12-20T06:02:43;3.40;;;1.92;;
64188;SDS011;50493;50.970;10.082;2023-12-20T06:05:08;2.63;;;1.60;;
64188;SDS011;50493;50.970;10.082;2023-12-20T06:07:34;2.60;;;1.65;;
64188;SDS011;50493;50.970;10.082;2023-12-20T06:09:59;4.20;;;1.85;;
64188;SDS011;50493;50.970;10.082;2023-12-20T06:12:25;2.90;;;1.60;;
64188;SDS011;50493;50.970;10.082;2023-12-20T06:14:51;6.00;;;2.20;;
64188;SDS011;50493;50.970;10.082;2023-12-20T06:17:17;4.32;;;2.33;;
64188;SDS011;50493;50.970;10.082;2023-12-20T06:19:44;4.00;;;2.08;;
64188;SDS011;50493;50.970;10.082;2023-12-20T06:22:13;5.25;;;2.10;;
64188;SDS011;50493;50.970;10.082;2023-12-20T06:24:38;5.60;;;2.17;;
64188;SDS011;50493;50.970;10.082;2023-12-20T06:27:03;4.13;;;2.10;;
64188;SDS011;50493;50.970;10.082;2023-12-20T06:29:29;3.70;;;2.00;;
64188;SDS011;50493;50.970;10.082;2023-12-20T06:31:54;5.28;;;2.20;;
64188;SDS011;50493;50.970;10.082;2023-12-20T06:34:19;3.97;;;2.20;;
64188;SDS011;50493;50.970;10.082;2023-12-20T06:36:46;4.28;;;2.10;;
64188;SDS011;50493;50.970;10.082;2023-12-20T06:39:11;3.83;;;2.30;;
64188;SDS011;50493;50.970;10.082;2023-12-20T06:41:37;3.90;;;2.05;;
64188;SDS011;50493;50.970;10.082;2023-12-20T06:44:02;7.25;;;2.97;;
64188;SDS011;50493;50.970;10.082;2023-12-20T06:46:28;4.47;;;2.05;;
64188;SDS011;50493;50.970;10.082;2023-12-20T06:48:53;6.03;;;2.73;;
64188;SDS011;50493;50.970;10.082;2023-12-20T06:51:19;11.00;;;4.45;;
64188;SDS011;50493;50.970;10.082;2023-12-20T06:53:46;8.93;;;4.07;;
64188;SDS011;50493;50.970;10.082;2023-12-20T06:56:11;9.48;;;4.57;;
64188;SDS011;50493;50.970;10.082;2023-12-20T06:58:37;6.32;;;2.80;;
64188;SDS011;50493;50.970;10.082;2023-12-20T07:01:03;24.98;;;11.98;;
64188;SDS011;50493;50.970;10.082;2023-12-20T07:03:29;8.32;;;4.57;;
64188;SDS011;50493;50.970;10.082;2023-12-20T07:05:54;12.25;;;6.68;;
64188;SDS011;50493;50.970;10.082;2023-12-20T07:08:20;13.77;;;6.93;;
64188;SDS011;50493;50.970;10.082;2023-12-20T07:10:46;21.63;;;9.77;;
64188;SDS011;50493;50.970;10.082;2023-12-20T07:13:11;16.15;;;7.95;;
64188;SDS011;50493;50.970;10.082;2023-12-20T07:15:37;15.88;;;8.25;;
64188;SDS011;50493;50.970;10.082;2023-12-20T07:18:03;16.65;;;7.15;;
64188;SDS011;50493;50.970;10.082;2023-12-20T07:20:29;7.88;;;3.78;;
64188;SDS011;50493;50.970;10.082;2023-12-20T07:22:55;12.60;;;6.47;;
64188;SDS011;50493;50.970;10.082;2023-12-20T07:25:20;7.88;;;3.70;;
64188;SDS011;50493;50.970;10.082;2023-12-20T07:27:47;15.07;;;6.20;;
64188;SDS011;50493;50.970;10.082;2023-12-20T07:30:12;8.13;;;3.80;;
64188;SDS011;50493;50.970;10.082;2023-12-20T07:32:38;12.75;;;4.97;;
64188;SDS011;50493;50.970;10.082;2023-12-20T07:35:03;10.10;;;4.28;;
64188;SDS011;50493;50.970;10.082;2023-12-20T07:37:30;8.23;;;4.32;;
64188;SDS011;50493;50.970;10.082;2023-12-20T07:39:55;12.63;;;4.85;;
64188;SDS011;50493;50.970;10.082;2023-12-20T07:42:21;7.90;;;4.28;;
64188;SDS011;50493;50.970;10.082;2023-12-20T07:44:48;9.45;;;4.68;;
64188;SDS011;50493;50.970;10.082;2023-12-20T07:47:14;10.07;;;4.43;;
64188;SDS011;50493;50.970;10.082;2023-12-20T07:49:42;8.18;;;4.30;;
64188;SDS011;50493;50.970;10.082;2023-12-20T07:52:07;10.15;;;4.53;;
64188;SDS011;50493;50.970;10.082;2023-12-20T07:54:33;9.65;;;3.60;;
64188;SDS011;50493;50.970;10.082;2023-12-20T07:56:58;5.95;;;3.17;;
64188;SDS011;50493;50.970;10.082;2023-12-20T07:59:23;8.15;;;3.70;;
64188;SDS011;50493;50.970;10.082;2023-12-20T08:01:50;11.43;;;4.03;;
64188;SDS011;50493;50.970;10.082;2023-12-20T08:04:15;11.18;;;4.07;;
64188;SDS011;50493;50.970;10.082;2023-12-20T08:06:41;7.82;;;3.67;;
64188;SDS011;50493;50.970;10.082;2023-12-20T08:09:06;7.43;;;2.88;;
64188;SDS011;50493;50.970;10.082;2023-12-20T08:11:31;6.97;;;3.23;;
64188;SDS011;50493;50.970;10.082;2023-12-20T08:13:57;7.43;;;2.93;;
64188;SDS011;50493;50.970;10.082;2023-12-20T08:16:22;9.88;;;3.30;;
64188;SDS011;50493;50.970;10.082;2023-12-20T08:18:49;8.47;;;3.40;;
64188;SDS011;50493;50.970;10.082;2023-12-20T08:21:15;6.72;;;3.13;;
64188;SDS011;50493;50.970;10.082;2023-12-20T08:23:40;6.38;;;3.20;;
64188;SDS011;50493;50.970;10.082;2023-12-20T08:26:06;7.90;;;3.10;;
64188;SDS011;50493;50.970;10.082;2023-12-20T08:28:32;8.27;;;3.45;;
64188;SDS011;50493;50.970;10.082;2023-12-20T08:30:57;8.48;;;3.22;;
64188;SDS011;50493;50.970;10.082;2023-12-20T08:33:23;6.63;;;3.00;;
64188;SDS011;50493;50.970;10.082;2023-12-20T08:35:49;7.18;;;3.40;;
64188;SDS011;50493;50.970;10.082;2023-12-20T08:38:15;5.13;;;2.75;;
64188;SDS011;50493;50.970;10.082;2023-12-20T08:40:41;7.72;;;3.03;;
64188;SDS011;50493;50.970;10.082;2023-12-20T08:43:07;7.93;;;3.17;;
64188;SDS011;50493;50.970;10.082;2023-12-20T08:45:32;9.15;;;2.85;;
64188;SDS011;50493;50.970;10.082;2023-12-20T08:47:57;7.95;;;3.10;;
64188;SDS011;50493;50.970;10.082;2023-12-20T08:50:23;9.35;;;3.30;;
64188;SDS011;50493;50.970;10.082;2023-12-20T08:52:49;5.68;;;2.80;;
64188;SDS011;50493;50.970;10.082;2023-12-20T08:55:15;6.72;;;3.15;;
64188;SDS011;50493;50.970;10.082;2023-12-20T08:57:41;7.22;;;3.15;;
64188;SDS011;50493;50.970;10.082;2023-12-20T09:00:07;5.25;;;2.72;;
64188;SDS011;50493;50.970;10.082;2023-12-20T09:02:33;5.72;;;2.85;;
64188;SDS011;50493;50.970;10.082;2023-12-20T09:05:01;7.78;;;2.78;;
64188;SDS011;50493;50.970;10.082;2023-12-20T09:07:26;5.15;;;2.60;;
64188;SDS011;50493;50.970;10.082;2023-12-20T09:09:53;5.80;;;2.70;;
64188;SDS011;50493;50.970;10.082;2023-12-20T09:12:19;6.70;;;2.45;;
64188;SDS011;50493;50.970;10.082;2023-12-20T09:14:45;6.50;;;2.40;;
64188;SDS011;50493;50.970;10.082;2023-12-20T09:17:11;4.32;;;2.45;;
64188;SDS011;50493;50.970;10.082;2023-12-20T09:19:37;5.85;;;2.58;;
64188;SDS011;50493;50.970;10.082;2023-12-20T09:22:02;5.20;;;2.40;;
64188;SDS011;50493;50.970;10.082;2023-12-20T09:24:28;7.55;;;2.30;;
64188;SDS011;50493;50.970;10.082;2023-12-20T09:26:56;5.60;;;2.55;;
64188;SDS011;50493;50.970;10.082;2023-12-20T09:29:22;7.03;;;2.53;;
64188;SDS011;50493;50.970;10.082;2023-12-20T09:31:47;5.15;;;2.55;;
64188;SDS011;50493;50.970;10.082;2023-12-20T09:34:13;4.88;;;2.33;;
64188;SDS011;50493;50.970;10.082;2023-12-20T09:36:39;6.47;;;1.95;;
64188;SDS011;50493;50.970;10.082;2023-12-20T09:39:11;6.00;;;3.13;;
64188;SDS011;50493;50.970;10.082;2023-12-20T09:41:37;7.50;;;3.25;;
64188;SDS011;50493;50.970;10.082;2023-12-20T09:44:08;7.70;;;2.70;;
64188;SDS011;50493;50.970;10.082;2023-12-20T09:46:36;6.43;;;2.83;;
64188;SDS011;50493;50.970;10.082;2023-12-20T09:49:07;7.30;;;2.72;;
64188;SDS011;50493;50.970;10.082;2023-12-20T09:51:33;9.77;;;3.00;;
64188;SDS011;50493;50.970;10.082;2023-12-20T09:53:59;7.88;;;2.22;;
64188;SDS011;50493;50.970;10.082;2023-12-20T09:56:28;5.70;;;2.60;;
64188;SDS011;50493;50.970;10.082;2023-12-20T09:58:54;7.13;;;2.97;;
64188;SDS011;50493;50.970;10.082;2023-12-20T10:01:21;6.38;;;3.05;;
64188;SDS011;50493;50.970;10.082;2023-12-20T10:03:47;6.18;;;2.80;;
64188;SDS011;50493;50.970;10.082;2023-12-20T10:06:12;6.28;;;3.03;;
64188;SDS011;50493;50.970;10.082;2023-12-20T10:08:38;8.80;;;2.58;;
64188;SDS011;50493;50.970;10.082;2023-12-20T10:11:04;8.25;;;2.65;;
64188;SDS011;50493;50.970;10.082;2023-12-20T10:13:29;6.63;;;2.33;;
64188;SDS011;50493;50.970;10.082;2023-12-20T10:15:55;5.80;;;2.58;;
64188;SDS011;50493;50.970;10.082;2023-12-20T10:18:22;5.65;;;2.65;;
64188;SDS011;50493;50.970;10.082;2023-12-20T10:20:48;8.20;;;2.90;;
64188;SDS011;50493;50.970;10.082;2023-12-20T10:23:13;5.20;;;2.72;;
64188;SDS011;50493;50.970;10.082;2023-12-20T10:25:41;6.93;;;2.60;;
64188;SDS011;50493;50.970;10.082;2023-12-20T10:28:09;5.38;;;2.53;;
64188;SDS011;50493;50.970;10.082;2023-12-20T10:30:36;5.25;;;2.60;;
64188;SDS011;50493;50.970;10.082;2023-12-20T10:33:01;6.22;;;3.00;;
64188;SDS011;50493;50.970;10.082;2023-12-20T10:35:28;5.10;;;2.38;;
64188;SDS011;50493;50.970;10.082;2023-12-20T10:37:55;10.43;;;3.42;;
64188;SDS011;50493;50.970;10.082;2023-12-20T10:40:21;7.53;;;3.08;;
64188;SDS011;50493;50.970;10.082;2023-12-20T10:42:47;8.32;;;2.85;;
64188;SDS011;50493;50.970;10.082;2023-12-20T10:45:12;4.60;;;2.78;;
64188;SDS011;50493;50.970;10.082;2023-12-20T10:47:37;6.53;;;2.67;;
64188;SDS011;50493;50.970;10.082;2023-12-20T10:50:05;8.55;;;2.83;;
64188;SDS011;50493;50.970;10.082;2023-12-20T10:52:34;8.00;;;2.67;;
64188;SDS011;50493;50.970;10.082;2023-12-20T10:55:01;6.88;;;2.75;;
64188;SDS011;50493;50.970;10.082;2023-12-20T10:57:26;7.28;;;3.20;;
64188;SDS011;50493;50.970;10.082;2023-12-20T10:59:53;5.95;;;2.70;;
64188;SDS011;50493;50.970;10.082;2023-12-20T11:02:19;4.18;;;2.40;;
64188;SDS011;50493;50.970;10.082;2023-12-20T11:04:47;6.25;;;3.00;;
64188;SDS011;50493;50.970;10.082;2023-12-20T11:07:19;8.63;;;3.15;;
64188;SDS011;50493;50.970;10.082;2023-12-20T11:10:00;9.73;;;2.60;;
64188;SDS011;50493;50.970;10.082;2023-12-20T11:12:35;6.60;;;2.50;;
64188;SDS011;50493;50.970;10.082;2023-12-20T11:15:06;4.65;;;2.58;;
64188;SDS011;50493;50.970;10.082;2023-12-20T11:17:33;6.70;;;2.60;;
64188;SDS011;50493;50.970;10.082;2023-12-20T11:20:05;7.82;;;2.95;;
64188;SDS011;50493;50.970;10.082;2023-12-20T11:22:36;8.45;;;3.10;;
64188;SDS011;50493;50.970;10.082;2023-12-20T11:25:04;6.30;;;2.65;;
64188;SDS011;50493;50.970;10.082;2023-12-20T11:27:33;5.78;;;2.40;;
64188;SDS011;50493;50.970;10.082;2023-12-20T11:29:58;7.50;;;2.75;;
64188;SDS011;50493;50.970;10.082;2023-12-20T11:32:30;6.85;;;2.45;;
64188;SDS011;50493;50.970;10.082;2023-12-20T11:34:55;7.45;;;3.40;;
64188;SDS011;50493;50.970;10.082;2023-12-20T11:37:21;8.07;;;3.05;;
64188;SDS011;50493;50.970;10.082;2023-12-20T11:39:54;5.82;;;2.85;;
64188;SDS011;50493;50.970;10.082;2023-12-20T11:42:21;7.65;;;2.85;;
64188;SDS011;50493;50.970;10.082;2023-12-20T11:44:47;8.18;;;3.00;;
64188;SDS011;50493;50.970;10.082;2023-12-20T11:47:13;6.57;;;3.25;;
64188;SDS011;50493;50.970;10.082;2023-12-20T11:49:40;8.25;;;3.33;;
64188;SDS011;50493;50.970;10.082;2023-12-20T11:52:06;8.82;;;3.58;;
64188;SDS011;50493;50.970;10.082;2023-12-20T11:54:31;6.50;;;2.90;;
64188;SDS011;50493;50.970;10.082;2023-12-20T11:56:57;6.95;;;3.17;;
64188;SDS011;50493;50.970;10.082;2023-12-20T11:59:23;5.70;;;2.90;;
64188;SDS011;50493;50.970;10.082;2023-12-20T12:01:49;6.60;;;2.80;;
64188;SDS011;50493;50.970;10.082;2023-12-20T12:04:15;5.10;;;2.72;;
64188;SDS011;50493;50.970;10.082;2023-12-20T12:06:42;6.18;;;2.80;;
64188;SDS011;50493;50.970;10.082;2023-12-20T12:09:07;3.55;;;1.85;;
64188;SDS011;50493;50.970;10.082;2023-12-20T12:11:33;6.07;;;2.75;;
64188;SDS011;50493;50.970;10.082;2023-12-20T12:13:58;3.72;;;1.85;;
64188;SDS011;50493;50.970;10.082;2023-12-20T12:16:25;6.53;;;2.35;;
64188;SDS011;50493;50.970;10.082;2023-12-20T12:18:56;4.20;;;2.30;;
64188;SDS011;50493;50.970;10.082;2023-12-20T12:21:22;6.85;;;2.92;;
64188;SDS011;50493;50.970;10.082;2023-12-20T12:23:47;5.63;;;2.53;;
64188;SDS011;50493;50.970;10.082;2023-12-20T12:26:13;4.75;;;2.30;;
64188;SDS011;50493;50.970;10.082;2023-12-20T12:28:39;5.95;;;2.50;;
64188;SDS011;50493;50.970;10.082;2023-12-20T12:31:05;5.85;;;2.40;;
64188;SDS011;50493;50.970;10.082;2023-12-20T12:33:32;5.57;;;2.03;;
64188;SDS011;50493;50.970;10.082;2023-12-20T12:35:57;3.85;;;2.00;;
64188;SDS011;50493;50.970;10.082;2023-12-20T12:38:23;4.35;;;2.30;;
64188;SDS011;50493;50.970;10.082;2023-12-20T12:40:49;5.45;;;2.17;;
64188;SDS011;50493;50.970;10.082;2023-12-20T12:43:15;4.93;;;2.42;;
64188;SDS011;50493;50.970;10.082;2023-12-20T12:45:40;4.22;;;1.90;;
64188;SDS011;50493;50.970;10.082;2023-12-20T12:48:06;4.23;;;2.10;;
64188;SDS011;50493;50.970;10.082;2023-12-20T12:50:33;5.03;;;2.20;;
64188;SDS011;50493;50.970;10.082;2023-12-20T12:52:59;5.40;;;2.28;;
64188;SDS011;50493;50.970;10.082;2023-12-20T12:55:24;3.83;;;1.67;;
64188;SDS011;50493;50.970;10.082;2023-12-20T12:57:49;6.20;;;2.20;;
64188;SDS011;50493;50.970;10.082;2023-12-20T13:00:15;4.65;;;2.13;;
64188;SDS011;50493;50.970;10.082;2023-12-20T13:02:40;4.97;;;1.95;;
64188;SDS011;50493;50.970;10.082;2023-12-20T13:05:09;3.10;;;1.90;;
64188;SDS011;50493;50.970;10.082;2023-12-20T13:07:35;3.88;;;2.05;;
64188;SDS011;50493;50.970;10.082;2023-12-20T13:10:02;6.15;;;2.30;;
64188;SDS011;50493;50.970;10.082;2023-12-20T13:12:28;4.80;;;2.50;;
64188;SDS011;50493;50.970;10.082;2023-12-20T13:14:54;5.70;;;2.20;;
64188;SDS011;50493;50.970;10.082;2023-12-20T13:17:20;4.32;;;1.75;;
64188;SDS011;50493;50.970;10.082;2023-12-20T13:19:45;5.57;;;1.92;;
64188;SDS011;50493;50.970;10.082;2023-12-20T13:22:10;5.88;;;2.00;;
64188;SDS011;50493;50.970;10.082;2023-12-20T13:24:37;6.65;;;2.08;;
64188;SDS011;50493;50.970;10.082;2023-12-20T13:27:02;6.40;;;1.85;;
64188;SDS011;50493;50.970;10.082;2023-12-20T13:29:28;5.95;;;2.30;;
64188;SDS011;50493;50.970;10.082;2023-12-20T13:31:53;3.45;;;1.58;;
64188;SDS011;50493;50.970;10.082;2023-12-20T13:34:18;4.40;;;1.60;;
64188;SDS011;50493;50.970;10.082;2023-12-20T13:36:44;3.47;;;1.80;;
64188;SDS011;50493;50.970;10.082;2023-12-20T13:39:15;5.32;;;1.80;;
64188;SDS011;50493;50.970;10.082;2023-12-20T13:41:43;4.65;;;1.77;;
64188;SDS011;50493;50.970;10.082;2023-12-20T13:44:08;3.88;;;2.00;;
64188;SDS011;50493;50.970;10.082;2023-12-20T13:46:33;5.78;;;2.58;;
64188;SDS011;50493;50.970;10.082;2023-12-20T13:48:59;5.32;;;2.38;;
64188;SDS011;50493;50.970;10.082;2023-12-20T13:51:24;4.80;;;2.00;;
64188;SDS011;50493;50.970;10.082;2023-12-20T13:53:50;3.95;;;2.63;;
64188;SDS011;50493;50.970;10.082;2023-12-20T13:56:15;5.03;;;1.90;;
64188;SDS011;50493;50.970;10.082;2023-12-20T13:58:42;4.78;;;2.10;;
64188;SDS011;50493;50.970;10.082;2023-12-20T14:01:07;5.40;;;2.05;;
64188;SDS011;50493;50.970;10.082;2023-12-20T14:03:33;3.28;;;1.70;;
64188;SDS011;50493;50.970;10.082;2023-12-20T14:05:59;3.90;;;1.88;;
64188;SDS011;50493;50.970;10.082;2023-12-20T14:08:25;6.35;;;1.98;;
64188;SDS011;50493;50.970;10.082;2023-12-20T14:10:52;6.50;;;2.03;;
64188;SDS011;50493;50.970;10.082;2023-12-20T14:13:17;5.53;;;1.92;;
64188;SDS011;50493;50.970;10.082;2023-12-20T14:15:44;3.83;;;1.98;;
64188;SDS011;50493;50.970;10.082;2023-12-20T14:18:09;5.70;;;2.25;;
64188;SDS011;50493;50.970;10.082;2023-12-20T14:20:35;5.18;;;1.90;;
64188;SDS011;50493;50.970;10.082;2023-12-20T14:23:01;8.88;;;2.35;;
64188;SDS011;50493;50.970;10.082;2023-12-20T14:25:26;5.72;;;2.22;;